Time;durP1;ratioP1;P1;durP2;ratioP2;P2;SDS_P1;SDS_P2;PMS_P1;PMS_P2;Temp;Humidity;BMP_temperature;BMP_pressure;BME280_temperature;BME280_humidity;BME280_pressure;Samples;Min_cycle;Max_cycle;Signal;HPM_P1;HPM_P2
2021/07/16 00:07:17;;;;;;;1999.90;999.90;;;;;;;22.37;75.64;101008.34;15633767;28;20064;-64
2021/07/16 00:14:50;;;;;;;1999.90;999.90;;;;;;;22.36;75.75;101003.06;15645954;28;20052;-64
2021/07/16 00:22:23;;;;;;;1999.90;999.90;;;;;;;22.48;75.33;100992.06;15634210;28;20084;-63
2021/07/16 00:29:57;;;;;;;;;;;;;;;22.51;75.56;100981.94;15640033;28;20126;-64
2021/07/16 00:37:29;;;;;;;1999.90;999.90;;;;;;;22.23;75.98;100996.97;15600628;28;19960;-64
2021/07/16 00:45:03;;;;;;;1999.90;999.90;;;;;;;22.12;76.04;101002.66;15659025;28;20512;-65
2021/07/16 00:52:35;;;;;;;1999.90;999.90;;;;;;;22.31;75.30;101009.97;15643620;28;20478;-64
2021/07/16 01:00:10;;;;;;;;;;;;;;;21.96;75.54;101016.41;15663894;28;20045;-65
2021/07/16 01:07:44;;;;;;;1999.90;999.90;;;;;;;21.76;75.67;101018.81;15644625;28;19927;-63
2021/07/16 01:15:19;;;;;;;1999.90;999.90;;;;;;;21.84;75.78;101020.44;15650319;28;20048;-64
2021/07/16 01:22:54;;;;;;;1999.90;999.90;;;;;;;21.89;74.62;101010.72;15644830;28;20426;-66
2021/07/16 01:30:31;;;;;;;1999.90;999.90;;;;;;;21.71;75.17;101019.22;15630699;28;20053;-63
2021/07/16 01:38:03;;;;;;;1999.90;999.90;;;;;;;21.46;75.45;100999.25;15608710;28;20115;-63
2021/07/16 01:45:40;;;;;;;1999.90;999.90;;;;;;;21.56;75.16;100989.13;15654283;28;20095;-64
2021/07/16 01:53:14;;;;;;;1999.90;999.90;;;;;;;21.52;75.58;100997.66;15637525;28;20045;-63
2021/07/16 02:00:49;;;;;;;1999.90;999.90;;;;;;;21.29;75.71;101012.19;15635993;28;20041;-63
2021/07/16 02:08:25;;;;;;;1999.90;999.90;;;;;;;21.01;77.99;101009.16;15623681;28;20049;-63
2021/07/16 02:15:59;;;;;;;1999.90;999.90;;;;;;;21.21;76.61;101007.66;15653846;28;20304;-63
2021/07/16 02:23:32;;;;;;;1999.90;999.90;;;;;;;21.13;76.09;101003.16;15657582;28;20196;-63
2021/07/16 02:31:08;;;;;;;1999.90;999.90;;;;;;;21.18;76.38;101005.63;15651736;28;20447;-63
2021/07/16 02:38:40;;;;;;;1999.90;999.90;;;;;;;21.16;75.72;100993.03;15636658;28;20393;-63
2021/07/16 02:46:14;;;;;;;1999.90;999.90;;;;;;;21.16;75.43;100999.53;15609518;28;20520;-63
2021/07/16 02:53:46;;;;;;;1999.90;999.90;;;;;;;21.05;75.62;100990.16;15649535;28;20106;-63
2021/07/16 03:01:20;;;;;;;1999.90;999.90;;;;;;;20.91;76.77;101005.06;15624316;28;20104;-63
2021/07/16 03:08:53;;;;;;;1999.90;999.90;;;;;;;20.82;76.51;101010.28;15622949;28;20053;-63
2021/07/16 03:16:27;;;;;;;1999.90;999.90;;;;;;;20.03;79.50;101028.69;15664779;28;20486;-63
2021/07/16 03:23:59;;;;;;;1999.90;999.90;;;;;;;20.67;77.56;101034.09;15627582;28;20053;-63
2021/07/16 03:31:33;;;;;;;;;;;;;;;20.99;76.90;101051.31;15642523;28;20060;-63
2021/07/16 03:39:06;;;;;;;1999.90;999.90;;;;;;;21.01;77.06;101043.22;15659358;28;19960;-63
2021/07/16 03:46:40;;;;;;;1999.90;999.90;;;;;;;20.98;77.61;101044.00;15644441;28;20041;-63
2021/07/16 03:54:12;;;;;;;1999.90;999.90;;;;;;;21.04;77.21;101042.41;15649505;28;20046;-63
2021/07/16 04:01:47;;;;;;;1999.90;999.90;;;;;;;21.13;77.42;101040.03;15610036;28;20130;-63
2021/07/16 04:09:27;;;;;;;1999.90;999.90;;;;;;;21.16;77.50;101035.59;15643770;28;20140;-63
2021/07/16 04:17:01;;;;;;;1999.90;999.90;;;;;;;21.48;77.05;101047.13;15634642;28;20134;-64
2021/07/16 04:24:34;;;;;;;1999.90;999.90;;;;;;;21.70;76.10;101048.81;15621857;28;20048;-63
2021/07/16 04:32:08;;;;;;;;;;;;;;;21.89;75.97;101050.50;15627797;28;20122;-64
2021/07/16 04:39:41;;;;;;;1999.90;999.90;;;;;;;21.99;76.08;101060.22;15612655;28;19991;-64
2021/07/16 04:47:14;;;;;;;1999.90;999.90;;;;;;;22.36;74.59;101063.56;15624217;28;20041;-64
2021/07/16 04:54:47;;;;;;;1999.90;999.90;;;;;;;22.51;74.65;101072.94;15652899;28;20136;-64
2021/07/16 05:02:20;;;;;;;1999.90;999.90;;;;;;;22.76;73.66;101070.06;15630118;28;20049;-64
2021/07/16 05:09:53;;;;;;;1999.90;999.90;;;;;;;23.08;73.47;101094.84;15608438;28;20049;-63
2021/07/16 05:17:27;;;;;;;1999.90;999.90;;;;;;;23.41;72.39;101104.91;15670961;28;20094;-63
2021/07/16 05:25:01;;;;;;;1999.90;999.90;;;;;;;23.69;70.73;101112.56;15611790;28;20045;-63
2021/07/16 05:32:35;;;;;;;1999.90;999.90;;;;;;;24.13;70.23;101109.06;15622340;28;20057;-63
2021/07/16 05:40:09;;;;;;;1999.90;999.90;;;;;;;24.31;69.05;101118.38;15654563;28;20043;-63
2021/07/16 05:47:43;;;;;;;1999.90;999.90;;;;;;;24.55;68.92;101122.25;15639001;28;20041;-62
2021/07/16 05:55:15;;;;;;;1999.90;999.90;;;;;;;25.21;65.75;101121.28;15604863;28;20075;-63
2021/07/16 06:02:49;;;;;;;1999.90;999.90;;;;;;;25.81;64.85;101125.50;15613049;28;20085;-63
2021/07/16 06:10:22;;;;;;;1999.90;999.90;;;;;;;25.70;63.74;101119.91;15578564;28;20049;-62
2021/07/16 06:18:14;;;;;;;1999.90;999.90;;;;;;;26.30;64.03;101135.44;15612313;28;20486;-62
2021/07/16 06:25:47;;;;;;;1999.90;999.90;;;;;;;26.69;61.88;101129.13;15611906;28;20048;-62
2021/07/16 06:33:21;;;;;;;1999.90;999.90;;;;;;;26.73;61.85;101144.19;15610390;28;20140;-62
2021/07/16 06:40:53;;;;;;;1999.90;999.90;;;;;;;27.20;60.65;101157.72;15610291;28;20125;-62
2021/07/16 06:48:26;;;;;;;1999.90;999.90;;;;;;;27.45;59.18;101174.44;15592865;28;20572;-62
2021/07/16 06:55:59;;;;;;;1999.90;999.90;;;;;;;26.92;60.90;101170.47;15610518;28;20057;-63
2021/07/16 07:03:32;;;;;;;1999.90;999.90;;;;;;;27.12;59.78;101176.28;15604037;28;20045;-62
2021/07/16 07:11:05;;;;;;;1999.90;999.90;;;;;;;27.66;58.86;101185.53;15608919;28;20096;-66
2021/07/16 07:18:39;;;;;;;1999.90;999.90;;;;;;;28.35;60.54;101188.63;15608769;28;20049;-65
2021/07/16 07:26:11;;;;;;;1999.90;999.90;;;;;;;28.51;55.89;101185.75;15591025;28;20053;-61
2021/07/16 07:33:45;;;;;;;1999.90;999.90;;;;;;;28.85;55.67;101202.56;15608210;28;20088;-61
2021/07/16 07:41:17;;;;;;;1999.90;999.90;;;;;;;29.47;54.52;101206.31;15588931;28;20044;-63
2021/07/16 07:48:51;;;;;;;1999.90;999.90;;;;;;;29.54;53.04;101194.66;15592196;28;20517;-62
2021/07/16 07:56:24;;;;;;;1999.90;999.90;;;;;;;30.04;52.73;101190.38;15597954;28;20533;-61
2021/07/16 08:03:57;;;;;;;1999.90;999.90;;;;;;;30.03;52.09;101190.81;15640386;28;20053;-61
2021/07/16 08:11:30;;;;;;;1999.90;999.90;;;;;;;30.28;52.15;101195.84;15679764;28;20132;-64
2021/07/16 08:19:04;;;;;;;1999.90;999.90;;;;;;;30.94;50.01;101206.47;15661266;28;20041;-64
2021/07/16 08:26:37;;;;;;;1999.90;999.90;;;;;;;30.90;51.23;101214.44;15620129;28;20053;-61
2021/07/16 08:34:11;;;;;;;1999.90;999.90;;;;;;;31.92;48.63;101213.41;15648858;28;20049;-63
2021/07/16 08:41:44;;;;;;;1999.90;999.90;;;;;;;31.88;51.51;101219.28;15667771;28;20042;-63
2021/07/16 08:49:22;;;;;;;1999.90;999.90;;;;;;;31.96;48.92;101211.97;15599948;28;20033;-63
2021/07/16 08:56:55;;;;;;;1999.90;999.90;;;;;;;32.30;48.04;101218.97;15598054;28;20535;-63
2021/07/16 09:04:37;;;;;;;1999.90;999.90;;;;;;;32.10;48.33;101220.13;15614937;28;20055;-63
2021/07/16 09:12:12;;;;;;;1999.90;999.90;;;;;;;32.54;48.46;101222.16;15618233;28;20139;-63
2021/07/16 09:19:48;;;;;;;1999.90;999.90;;;;;;;32.57;45.86;101230.66;15596939;28;20037;-63
2021/07/16 09:27:36;;;;;;;1999.90;999.90;;;;;;;31.88;49.22;101219.28;15596655;28;20124;-63
2021/07/16 09:35:17;;;;;;;1999.90;999.90;;;;;;;32.89;49.92;101222.81;15596530;28;20050;-62
2021/07/16 09:43:00;;;;;;;1999.90;999.90;;;;;;;32.71;46.98;101206.97;15614075;28;20053;-62
2021/07/16 09:50:34;;;;;;;1999.90;999.90;;;;;;;33.39;46.45;101214.94;15613344;28;20139;-62
2021/07/16 09:58:23;;;;;;;1999.90;999.90;;;;;;;32.92;46.52;101211.09;15612731;28;20092;-62
2021/07/16 10:06:11;;;;;;;1999.90;999.90;;;;;;;33.43;46.28;101215.56;15594467;28;20056;-63
2021/07/16 10:13:49;;;;;;;1999.90;999.90;;;;;;;34.35;45.38;101213.44;15611141;28;20176;-63
2021/07/16 10:21:24;;;;;;;1999.90;999.90;;;;;;;34.54;42.37;101229.50;15611430;28;20128;-63
2021/07/16 10:28:56;;;;;;;1999.90;999.90;;;;;;;32.06;46.85;101230.16;15593237;28;20046;-62
2021/07/16 10:36:44;;;;;;;1999.90;999.90;;;;;;;34.81;44.37;101234.41;15577566;28;20403;-62
2021/07/16 10:44:46;;;;;;;1999.90;999.90;;;;;;;35.56;41.39;101239.31;15611294;28;20041;-62
2021/07/16 10:52:45;;;;;;;1999.90;999.90;;;;;;;35.08;41.12;101239.28;15648200;22;20078;-62
2021/07/16 11:00:48;;;;;;;1999.90;999.90;;;;;;;35.52;41.43;101239.50;15784681;28;20093;-63
2021/07/16 11:08:49;;;;;;;1999.90;999.90;;;;;;;35.13;44.03;101241.50;15753568;28;20488;-62
2021/07/16 11:16:41;;;;;;;1999.90;999.90;;;;;;;36.90;38.63;101238.97;15800374;28;20044;-62
2021/07/16 11:24:24;;;;;;;1999.90;999.90;;;;;;;36.68;39.12;101238.56;15738121;28;20051;-63
2021/07/16 11:32:06;;;;;;;1999.90;999.90;;;;;;;37.71;37.87;101237.47;15749268;28;20049;-63
2021/07/16 11:39:40;;;;;;;1999.90;999.90;;;;;;;34.76;41.26;101226.34;15748765;28;20481;-63
2021/07/16 11:47:18;;;;;;;1999.90;999.90;;;;;;;36.85;39.22;101233.88;15748861;28;20620;-62
2021/07/16 11:54:52;;;;;;;1999.90;999.90;;;;;;;36.91;38.42;101231.84;15731376;28;20240;-63
2021/07/16 12:02:25;;;;;;;1999.90;999.90;;;;;;;38.63;36.10;101242.44;15748168;28;20046;-64
2021/07/16 12:09:58;;;;;;;1999.90;999.90;;;;;;;36.87;38.21;101227.53;15747242;28;20052;-63
2021/07/16 12:17:33;;;;;;;1999.90;999.90;;;;;;;37.36;35.93;101226.72;15746097;28;20098;-64
2021/07/16 12:25:08;;;;;;;1999.90;999.90;;;;;;;37.97;35.85;101228.78;15744751;28;20040;-64
2021/07/16 12:32:41;;;;;;;1999.90;999.90;;;;;;;35.64;38.86;101213.59;15741616;28;20076;-63
2021/07/16 12:40:18;;;;;;;1999.90;999.90;;;;;;;36.17;38.53;101216.53;15742704;28;20051;-61
2021/07/16 12:47:52;;;;;;;1999.90;999.90;;;;;;;37.71;35.84;101217.88;15744544;28;20432;-61
2021/07/16 12:55:32;;;;;;;1999.90;999.90;;;;;;;38.13;34.04;101210.69;15774881;28;20474;-60
2021/07/16 13:03:19;;;;;;;1999.90;999.90;;;;;;;38.50;35.89;101213.72;15805407;28;20427;-61
2021/07/16 13:10:55;;;;;;;1999.90;999.90;;;;;;;37.55;36.51;101207.63;15800715;28;20415;-62
2021/07/16 13:18:28;;;;;;;1999.90;999.90;;;;;;;36.21;39.48;101210.53;15800219;28;20078;-63
2021/07/16 13:26:01;;;;;;;1999.90;999.90;;;;;;;34.03;42.35;101214.94;15803552;28;20044;-63
2021/07/16 13:33:35;;;;;;;1999.90;999.90;;;;;;;33.59;46.41;101223.94;15784937;28;20562;-59
2021/07/16 13:41:08;;;;;;;1999.90;999.90;;;;;;;33.50;49.75;101227.63;15782719;28;20135;-61
2021/07/16 13:48:40;;;;;;;1999.90;999.90;;;;;;;32.88;49.89;101222.00;15802662;28;20040;-63
2021/07/16 13:56:14;;;;;;;1999.90;999.90;;;;;;;32.21;51.97;101227.56;15748694;28;20033;-62
2021/07/16 14:03:46;;;;;;;1999.90;999.90;;;;;;;31.41;52.08;101243.22;15678559;28;20049;-62
2021/07/16 14:11:19;;;;;;;1999.90;999.90;;;;;;;31.35;53.38;101252.91;15678504;28;20037;-62
2021/07/16 14:18:52;;;;;;;1999.90;999.90;;;;;;;30.83;54.49;101243.47;15636041;28;20049;-61
2021/07/16 14:26:26;;;;;;;1999.90;999.90;;;;;;;31.02;55.80;101245.31;15673476;28;20064;-63
2021/07/16 14:33:58;;;;;;;1999.90;999.90;;;;;;;30.31;56.80;101243.84;15649284;28;20045;-62
2021/07/16 14:41:32;;;;;;;1999.90;999.90;;;;;;;30.92;55.47;101248.53;15647162;28;20053;-62
2021/07/16 14:49:05;;;;;;;1999.90;999.90;;;;;;;30.63;54.89;101239.97;15642982;28;20037;-61
2021/07/16 14:56:39;;;;;;;1999.90;999.90;;;;;;;30.45;55.79;101234.81;15717048;28;20048;-63
2021/07/16 15:04:11;;;;;;;1999.90;999.90;;;;;;;30.77;56.01;101224.38;15732608;28;20086;-63
2021/07/16 15:11:45;;;;;;;1999.90;999.90;;;;;;;30.28;56.85;101207.34;15707813;28;20440;-63
2021/07/16 15:19:18;;;;;;;1999.90;999.90;;;;;;;30.27;57.64;101214.38;15722821;28;20033;-64
2021/07/16 15:26:51;;;;;;;1999.90;999.90;;;;;;;30.38;58.05;101220.63;15731010;28;20128;-62
2021/07/16 15:34:24;;;;;;;1999.90;999.90;;;;;;;30.17;60.10;101228.63;15713037;28;20094;-62
2021/07/16 15:41:59;;;;;;;1999.90;999.90;;;;;;;30.41;57.61;101225.44;15697978;28;20132;-61
2021/07/16 15:49:33;;;;;;;1999.90;999.90;;;;;;;29.79;58.47;101244.91;15733501;28;20078;-62
2021/07/16 15:57:06;;;;;;;1999.90;999.90;;;;;;;29.84;58.59;101244.38;15735159;28;20041;-63
2021/07/16 16:04:39;;;;;;;1999.90;999.90;;;;;;;29.84;58.78;101247.25;15700798;28;20086;-62
2021/07/16 16:12:13;;;;;;;1999.90;999.90;;;;;;;29.51;58.35;101241.59;15722333;28;20036;-62
2021/07/16 16:19:46;;;;;;;1999.90;999.90;;;;;;;29.63;57.88;101254.41;15746365;28;20076;-63
2021/07/16 16:27:19;;;;;;;1999.90;999.90;;;;;;;29.95;58.13;101247.75;15744070;28;20461;-63
2021/07/16 16:34:51;;;;;;;1999.90;999.90;;;;;;;29.92;57.29;101251.56;15653625;28;20041;-63
2021/07/16 16:42:25;;;;;;;1999.90;999.90;;;;;;;29.66;58.01;101250.63;15714087;28;20052;-63
2021/07/16 16:49:57;;;;;;;1999.90;999.90;;;;;;;29.63;59.16;101248.66;15667968;28;20048;-63
2021/07/16 16:57:31;;;;;;;1999.90;999.90;;;;;;;29.60;58.73;101258.19;15684811;28;20055;-64
2021/07/16 17:05:04;;;;;;;1999.90;999.90;;;;;;;29.34;59.68;101262.94;15746666;28;20060;-64
2021/07/16 17:12:39;;;;;;;1999.90;999.90;;;;;;;29.39;59.30;101273.06;15728185;28;20077;-64
2021/07/16 17:20:12;;;;;;;1999.90;999.90;;;;;;;29.28;59.96;101273.34;15744292;28;20044;-64
2021/07/16 17:28:06;;;;;;;1999.90;999.90;;;;;;;29.17;60.58;101279.38;15743474;28;20056;-64
2021/07/16 17:35:39;;;;;;;1999.90;999.90;;;;;;;29.16;59.69;101277.75;15743840;28;20140;-63
2021/07/16 17:43:13;;;;;;;1999.90;999.90;;;;;;;29.06;60.23;101284.56;15743394;28;20051;-65
2021/07/16 17:50:46;;;;;;;1999.90;999.90;;;;;;;28.68;60.03;101284.22;15740347;28;20051;-62
2021/07/16 17:58:20;;;;;;;1999.90;999.90;;;;;;;28.52;59.75;101293.59;15741327;28;20421;-63
2021/07/16 18:05:52;;;;;;;1999.90;999.90;;;;;;;28.38;60.19;101299.63;15732002;28;20075;-65
2021/07/16 18:13:26;;;;;;;1999.90;999.90;;;;;;;28.29;60.80;101325.25;15687827;28;20110;-63
2021/07/16 18:20:59;;;;;;;1999.90;999.90;;;;;;;28.08;61.35;101327.25;15725770;28;20041;-62
2021/07/16 18:28:33;;;;;;;1999.90;999.90;;;;;;;27.97;62.32;101312.31;15704716;28;20075;-62
2021/07/16 18:36:07;;;;;;;1999.90;999.90;;;;;;;27.43;64.08;101331.69;15701462;28;20049;-61
2021/07/16 18:43:41;;;;;;;1999.90;999.90;;;;;;;27.31;66.66;101328.19;15716017;28;20032;-64
2021/07/16 18:51:13;;;;;;;1999.90;999.90;;;;;;;27.13;69.03;101338.31;15709407;28;20040;-63
2021/07/16 18:58:46;;;;;;;;;;;;;;;26.09;70.74;101339.59;15706650;28;20504;-64
2021/07/16 19:06:18;;;;;;;1999.90;999.90;;;;;;;25.58;74.82;101337.59;15757637;28;20007;-63
2021/07/16 19:13:52;;;;;;;;;;;;;;;25.65;75.66;101339.59;15686983;28;20044;-63
2021/07/16 19:21:24;;;;;;;1999.90;999.90;;;;;;;25.26;75.08;101347.25;15730639;28;20365;-64
2021/07/16 19:28:58;;;;;;;1999.90;999.90;;;;;;;25.21;75.22;101346.88;15703799;28;20036;-63
2021/07/16 19:36:30;;;;;;;1999.90;999.90;;;;;;;25.22;74.13;101357.91;15693734;28;20111;-65
2021/07/16 19:44:06;;;;;;;1999.90;999.90;;;;;;;24.72;76.44;101358.16;15738064;28;20052;-64
2021/07/16 19:51:40;;;;;;;1999.90;999.90;;;;;;;24.74;74.92;101361.41;15712691;28;20040;-64
2021/07/16 20:18:20;;;;;;;1999.90;999.90;;;;;;;24.70;77.88;101388.34;15721656;28;20124;-65
2021/07/16 20:25:53;;;;;;;1999.90;999.90;;;;;;;23.71;84.28;101449.16;15633261;28;20406;-63
2021/07/16 20:33:30;;;;;;;1999.90;999.90;;;;;;;24.10;83.74;101427.16;15700983;28;20515;-61
2021/07/16 20:41:03;;;;;;;1999.90;999.90;;;;;;;24.44;82.78;101421.03;15706711;28;20044;-62
2021/07/16 20:48:37;;;;;;;1999.90;999.90;;;;;;;24.60;83.02;101403.47;15734876;28;20068;-63
2021/07/16 20:56:09;;;;;;;1999.90;999.90;;;;;;;24.64;82.28;101413.63;15705418;28;20387;-62
2021/07/16 21:03:43;;;;;;;1999.90;999.90;;;;;;;24.70;82.34;101411.97;15692830;28;21635;-62
2021/07/16 21:11:16;;;;;;;1999.90;999.90;;;;;;;24.77;82.12;101409.06;15709312;28;20086;-62
2021/07/16 21:18:49;;;;;;;1999.90;999.90;;;;;;;24.73;81.79;101418.91;15709887;28;20045;-62
2021/07/16 21:26:21;;;;;;;1999.90;999.90;;;;;;;24.73;82.28;101416.84;15686285;28;20102;-62
2021/07/16 21:33:55;;;;;;;1999.90;999.90;;;;;;;24.79;81.91;101420.06;15713819;28;20106;-62
2021/07/16 21:41:28;;;;;;;1999.90;999.90;;;;;;;24.80;81.88;101424.56;15691502;28;20037;-63
2021/07/16 21:49:01;;;;;;;1999.90;999.90;;;;;;;24.77;82.02;101416.81;15722812;28;20486;-64
2021/07/16 21:56:34;;;;;;;1999.90;999.90;;;;;;;24.76;81.38;101418.06;15704441;28;20053;-63
2021/07/16 22:04:07;;;;;;;1999.90;999.90;;;;;;;24.47;82.80;101401.03;15724187;28;20098;-63
2021/07/16 22:11:41;;;;;;;1999.90;999.90;;;;;;;24.54;83.05;101405.91;15695536;28;20072;-63
2021/07/16 22:19:14;;;;;;;1999.90;999.90;;;;;;;24.49;83.22;101403.50;15712488;28;20106;-63
2021/07/16 22:26:46;;;;;;;1999.90;999.90;;;;;;;24.28;84.10;101403.50;15710413;28;20059;-63
2021/07/16 22:34:20;;;;;;;1999.90;999.90;;;;;;;24.37;84.01;101383.94;15739314;28;20110;-62
2021/07/16 22:41:52;;;;;;;1999.90;999.90;;;;;;;24.26;84.76;101389.66;15690727;28;20061;-63
2021/07/16 22:49:26;;;;;;;1999.90;999.90;;;;;;;24.35;84.96;101381.50;15698632;28;20076;-62
2021/07/16 22:56:58;;;;;;;1999.90;999.90;;;;;;;24.30;85.50;101379.06;15699998;28;20303;-62
2021/07/16 23:04:31;;;;;;;1999.90;999.90;;;;;;;24.45;85.72;101394.13;15733250;28;20444;-63
2021/07/16 23:12:04;;;;;;;1999.90;999.90;;;;;;;24.48;86.22;101387.56;15674222;28;20555;-63
2021/07/16 23:19:38;;;;;;;1999.90;999.90;;;;;;;24.40;86.36;101398.22;15705275;28;20471;-63
2021/07/16 23:27:10;;;;;;;1999.90;999.90;;;;;;;24.39;86.13;101390.88;15711929;28;20055;-63
2021/07/16 23:34:44;;;;;;;1999.90;999.90;;;;;;;24.53;85.34;101380.66;15720565;28;20048;-63
2021/07/16 23:42:16;;;;;;;1999.90;999.90;;;;;;;24.56;84.88;101371.25;15711528;28;20087;-63
2021/07/16 23:49:50;;;;;;;1999.90;999.90;;;;;;;24.37;85.24;101376.22;15689793;28;20566;-62
2021/07/16 23:57:22;;;;;;;1999.90;999.90;;;;;;;24.47;84.46;101389.63;15704910;28;20045;-63
